Terminal Aerodrome Forecast
Issued by NWS

Home | Current Version | Previous Version | Text Only | Print | Product List | Glossary On
Versions: 1 2 3 4 5 6 7 8 9 10 11 12 13 14
000
FTUS44 KCRP 052328
TAFALI
TAF
KALI 052328Z 0600/0624 13015G25KT P6SM VCSH SCT015 BKN025 OVC040
      TEMPO 0600/0602 -SHRA BKN015
     FM060200 13013KT P6SM SCT012 OVC035
      TEMPO 0602/0606 BKN012
     FM060800 14007KT P6SM BKN012 OVC050
     FM061600 15012G18KT P6SM BKN025 OVC060
     FM062000 13016G24KT P6SM SCT030 BKN070=

USA.gov is the U.S. government's official web portal to all federal, state and local government web resources and services.